Skip Navigation LinksHome page > Weather > Current weather Skip Navigation Links

Current Weather

Denver Intl, Denver

For information only: do not use for flight planning or navigation.
Latest weather
Observation time Thursday, November 21, 2019 12:34 PM MST
Local time Thursday, November 21, 2019 1:00 PM MST
Flight conditions Instrument Meteorological Conditions
Winds
Wind direction East-Northeast (70°)
Wind speed 5 mph
Visibility 2 mi.
Present weather light snow
Sky condition
Ceiling 500 ft. overcast
Cloud layer overcast 500 ft.
Temperature 27°F
Dewpoint 25°F
Altimeter 30.08 in.Hg
Precipitation
Precipitation last hour trace
Derived measurements
Relative humidity 92%
Wind chill 22°F
Density altitude 3129 ft.
Remarks
Automated weather observing station with precipitation discriminator.
Surface visibility.
METAR KDEN 211934Z 07004KT 2SM -SN OVC005 M03/M04 A3008 RMK AO2 SFC VIS 9 P0000 T10281039

Settings

Location code

InnerDrive.Weather 4.0.6770.0 Release CLR 4.0.30319.42000
Copyright ©2018 Inner Drive Technology. All rights reserved. Portions Copyright ©1986-2018 David Braverman.

Find weather

Site navigation


Skip Navigation Links

Place info

Page info

PayPal - The safer, easier way to pay online!

Return home.

Copyright ©2019 Inner Drive Technology. Purveyors of fine, hand-crafted computer software. Page printed 2019-11-21T20:00:26 UTC.